Time;durP1;ratioP1;P1;durP2;ratioP2;P2;SDS_P1;SDS_P2;PMS_P1;PMS_P2;Temp;Humidity;BMP_temperature;BMP_pressure;BME280_temperature;BME280_humidity;BME280_pressure;Samples;Min_cycle;Max_cycle;Signal;HPM_P1;HPM_P2
2021/07/18 00:00:48;;;;;;;600.10;554.70;;;;;;;;;;4277764;33;20046;-85
2021/07/18 00:03:17;;;;;;;443.05;411.10;;;;;;;;;;4272960;33;20460;-84
2021/07/18 00:05:46;;;;;;;457.95;423.52;;;;;;;;;;4276161;33;20148;-84
2021/07/18 00:08:14;;;;;;;338.83;316.95;;;;;;;;;;4278955;33;20488;-85
2021/07/18 00:10:43;;;;;;;471.58;440.08;;;;;;;;;;4275986;33;20538;-84
2021/07/18 00:13:11;;;;;;;467.35;435.73;;;;;;;;;;4273856;33;20088;-85
2021/07/18 00:15:40;;;;;;;339.48;315.35;;;;;;;;;;4278942;33;20716;-84
2021/07/18 00:18:08;;;;;;;372.75;347.65;;;;;;;;;;4273610;33;20049;-83
2021/07/18 00:20:37;;;;;;;466.10;431.67;;;;;;;;;;4275850;33;20111;-83
2021/07/18 00:23:05;;;;;;;468.83;432.88;;;;;;;;;;4274709;33;20119;-84
2021/07/18 00:25:34;;;;;;;414.40;384.35;;;;;;;;;;4276046;33;20069;-84
2021/07/18 00:28:03;;;;;;;280.67;260.33;;;;;;;;;;4274570;33;20192;-84
2021/07/18 00:30:31;;;;;;;379.13;353.58;;;;;;;;;;4274585;33;20696;-84
2021/07/18 00:33:00;;;;;;;407.10;376.80;;;;;;;;;;4274752;33;20114;-84
2021/07/18 00:35:28;;;;;;;393.83;364.98;;;;;;;;;;4275557;33;20144;-84
2021/07/18 00:37:57;;;;;;;417.65;386.00;;;;;;;;;;4276530;33;20072;-84
2021/07/18 00:40:26;;;;;;;444.17;414.40;;;;;;;;;;4276227;33;20076;-84
2021/07/18 00:43:05;;;;;;;541.72;502.42;;;;;;;;;;4274857;33;20073;-84
2021/07/18 00:45:34;;;;;;;403.85;375.45;;;;;;;;;;4277314;33;20423;-85
2021/07/18 00:48:02;;;;;;;434.15;404.08;;;;;;;;;;4276106;33;20057;-84
2021/07/18 00:50:32;;;;;;;548.95;509.25;;;;;;;;;;4275712;33;20112;-84
2021/07/18 00:53:05;;;;;;;546.97;506.65;;;;;;;;;;4275960;33;20080;-84
2021/07/18 00:55:38;;;;;;;359.12;334.23;;;;;;;;;;4276215;33;20450;-83
2021/07/18 00:58:07;;;;;;;470.62;437.08;;;;;;;;;;4274005;33;20120;-84
2021/07/18 01:00:35;;;;;;;423.45;392.67;;;;;;;;;;4276543;33;20119;-84
2021/07/18 01:03:04;;;;;;;446.52;411.40;;;;;;;;;;4274961;33;20463;-84
2021/07/18 01:05:33;;;;;;;484.50;448.30;;;;;;;;;;4278608;33;20049;-84
2021/07/18 01:08:02;;;;;;;377.27;350.98;;;;;;;;;;4275855;33;20053;-83
2021/07/18 01:10:30;;;;;;;420.30;386.52;;;;;;;;;;4275428;33;20061;-85
2021/07/18 01:12:59;;;;;;;405.80;374.58;;;;;;;;;;4272768;33;20147;-84
2021/07/18 01:15:38;;;;;;;543.03;499.62;;;;;;;;;;4275820;33;20499;-84
2021/07/18 01:18:08;;;;;;;587.80;543.35;;;;;;;;;;4274163;33;20199;-83
2021/07/18 01:20:36;;;;;;;634.63;582.58;;;;;;;;;;4274675;33;20069;-84
2021/07/18 01:23:05;;;;;;;734.55;668.45;;;;;;;;;;4272679;33;20069;-84
2021/07/18 01:25:35;;;;;;;685.90;620.22;;;;;;;;;;4276601;33;20582;-84
2021/07/18 01:28:10;;;;;;;648.62;588.83;;;;;;;;;;4273457;33;20057;-84
2021/07/18 01:30:39;;;;;;;790.12;708.47;;;;;;;;;;4274287;33;20069;-84
2021/07/18 01:33:08;;;;;;;617.97;559.42;;;;;;;;;;4272977;33;20292;-83
2021/07/18 01:35:37;;;;;;;773.78;695.38;;;;;;;;;;4278733;33;20049;-84
2021/07/18 01:38:06;;;;;;;476.25;435.17;;;;;;;;;;4274089;33;20139;-84
2021/07/18 01:40:35;;;;;;;847.25;751.90;;;;;;;;;;4269418;33;20077;-83
2021/07/18 01:43:04;;;;;;;864.22;771.30;;;;;;;;;;4271814;33;20082;-83
2021/07/18 01:45:33;;;;;;;913.87;768.35;;;;;;;;;;4276275;33;20120;-84
2021/07/18 01:48:02;;;;;;;806.60;706.22;;;;;;;;;;4276378;33;20060;-83
2021/07/18 01:50:32;;;;;;;764.75;680.87;;;;;;;;;;4278315;33;20077;-83
2021/07/18 01:53:01;;;;;;;702.10;633.87;;;;;;;;;;4275189;33;20440;-85
2021/07/18 01:55:29;;;;;;;822.25;717.75;;;;;;;;;;4277848;33;20164;-84
2021/07/18 01:57:58;;;;;;;1918.63;992.33;;;;;;;;;;4276270;33;20069;-84
2021/07/18 02:00:27;;;;;;;1237.88;849.65;;;;;;;;;;4279069;33;20467;-83
2021/07/18 02:02:56;;;;;;;1132.35;847.10;;;;;;;;;;4274333;33;20093;-84
2021/07/18 02:05:24;;;;;;;910.80;760.53;;;;;;;;;;4275141;33;20115;-84
2021/07/18 02:07:55;;;;;;;987.63;792.35;;;;;;;;;;4263535;33;20104;-85
2021/07/18 02:10:23;;;;;;;954.87;787.92;;;;;;;;;;4268506;33;20076;-84
2021/07/18 02:12:51;;;;;;;923.05;773.37;;;;;;;;;;4260917;33;20152;-84
2021/07/18 02:15:21;;;;;;;803.08;723.30;;;;;;;;;;4264829;33;20057;-83
2021/07/18 02:17:50;;;;;;;784.50;708.12;;;;;;;;;;4262111;33;20085;-83
2021/07/18 02:20:19;;;;;;;620.60;566.80;;;;;;;;;;4264422;33;20057;-84
2021/07/18 02:22:51;;;;;;;723.83;655.55;;;;;;;;;;4261115;33;20224;-84
2021/07/18 02:25:20;;;;;;;730.17;667.78;;;;;;;;;;4262162;33;20148;-83
2021/07/18 02:27:50;;;;;;;897.33;806.33;;;;;;;;;;4264195;33;20096;-83
2021/07/18 02:30:21;;;;;;;769.22;698.20;;;;;;;;;;4266104;33;20076;-84
2021/07/18 02:32:51;;;;;;;803.08;729.00;;;;;;;;;;4259957;33;20157;-83
2021/07/18 02:35:19;;;;;;;1036.13;893.97;;;;;;;;;;4262275;33;20180;-83
2021/07/18 02:37:48;;;;;;;1800.32;999.90;;;;;;;;;;4263729;33;20065;-84
2021/07/18 02:40:18;;;;;;;1292.95;957.03;;;;;;;;;;4265787;33;20125;-84
2021/07/18 02:42:47;;;;;;;1155.90;923.65;;;;;;;;;;4261512;33;20089;-84
2021/07/18 02:45:16;;;;;;;937.67;833.42;;;;;;;;;;4264445;33;20101;-84
2021/07/18 02:47:46;;;;;;;1473.47;938.75;;;;;;;;;;4258161;33;20192;-83
2021/07/18 02:50:17;;;;;;;1220.50;901.92;;;;;;;;;;4262706;33;20084;-82
2021/07/18 02:52:46;;;;;;;907.80;814.55;;;;;;;;;;4262796;33;20053;-84
2021/07/18 02:55:15;;;;;;;1026.70;861.50;;;;;;;;;;4263112;33;20085;-83
2021/07/18 02:57:44;;;;;;;1028.70;903.97;;;;;;;;;;4261297;33;20526;-84
2021/07/18 03:00:14;;;;;;;1004.92;900.72;;;;;;;;;;4265924;33;20116;-84
2021/07/18 03:02:43;;;;;;;956.08;862.20;;;;;;;;;;4260496;33;20486;-84
2021/07/18 03:05:13;;;;;;;884.88;807.40;;;;;;;;;;4269984;33;20077;-84
2021/07/18 03:07:41;;;;;;;1157.13;937.25;;;;;;;;;;4274515;33;20203;-84
2021/07/18 08:28:57;;;;;;;1620.30;936.47;;;;;;;;;;5023419;28;20098;-84
2021/07/18 08:31:26;;;;;;;909.70;816.95;;;;;;;;;;4230972;33;20094;-83
2021/07/18 08:33:55;;;;;;;1607.20;934.62;;;;;;;;;;4232190;33;20118;-84
2021/07/18 08:36:24;;;;;;;929.72;833.87;;;;;;;;;;4230748;33;20073;-84
2021/07/18 08:38:53;;;;;;;1275.53;885.25;;;;;;;;;;4231099;33;20068;-84
2021/07/18 08:41:22;;;;;;;1306.47;890.90;;;;;;;;;;4230868;33;20748;-84
2021/07/18 08:43:51;;;;;;;1091.88;850.45;;;;;;;;;;4241010;33;20172;-83
2021/07/18 08:46:20;;;;;;;1108.28;855.63;;;;;;;;;;4229606;33;20109;-84
2021/07/18 08:48:48;;;;;;;1066.93;849.72;;;;;;;;;;4230670;33;20051;-84
2021/07/18 08:51:17;;;;;;;1011.70;832.80;;;;;;;;;;4232886;33;20051;-84
2021/07/18 08:53:49;;;;;;;1159.85;860.70;;;;;;;;;;4232156;33;20170;-86
2021/07/18 08:56:18;;;;;;;1352.90;874.67;;;;;;;;;;4233068;33;21136;-85
2021/07/18 08:58:47;;;;;;;1054.03;807.65;;;;;;;;;;4230861;33;20575;-85
2021/07/18 09:01:15;;;;;;;1267.13;856.20;;;;;;;;;;4229536;33;20110;-87
2021/07/18 09:03:44;;;;;;;870.17;775.85;;;;;;;;;;4232730;33;20034;-86
2021/07/18 09:06:12;;;;;;;1009.97;815.20;;;;;;;;;;4231617;33;20058;-85
2021/07/18 09:08:46;;;;;;;861.95;750.62;;;;;;;;;;4232781;33;20147;-87
2021/07/18 09:11:23;;;;;;;1321.68;845.00;;;;;;;;;;4234008;33;20090;-86
2021/07/18 09:14:02;;;;;;;1318.28;847.15;;;;;;;;;;4234856;33;20410;-86
2021/07/18 09:16:33;;;;;;;839.38;726.78;;;;;;;;;;4234437;33;20664;-86
2021/07/18 09:19:15;;;;;;;851.13;711.10;;;;;;;;;;4235405;33;20050;-86
2021/07/18 09:21:50;;;;;;;1018.78;746.08;;;;;;;;;;4234599;33;20117;-85
2021/07/18 09:24:20;;;;;;;1123.30;805.92;;;;;;;;;;4236677;33;20140;-86
2021/07/18 09:27:04;;;;;;;851.33;688.10;;;;;;;;;;4233293;33;20192;-86
2021/07/18 09:29:34;;;;;;;747.00;661.35;;;;;;;;;;4232394;33;20148;-87
2021/07/18 09:32:03;;;;;;;967.03;690.50;;;;;;;;;;4232615;33;20041;-86
2021/07/18 09:34:34;;;;;;;819.10;698.88;;;;;;;;;;4245477;33;20102;-87
2021/07/18 09:37:04;;;;;;;1277.82;754.25;;;;;;;;;;4246313;33;20233;-86
2021/07/18 09:39:33;;;;;;;1107.68;754.00;;;;;;;;;;4233746;33;20870;-86
2021/07/18 09:42:05;;;;;;;918.53;712.37;;;;;;;;;;4231149;33;20105;-86
2021/07/18 09:44:41;;;;;;;798.35;660.55;;;;;;;;;;4231918;33;20504;-86
2021/07/18 09:47:10;;;;;;;975.65;720.45;;;;;;;;;;4232776;33;20086;-85
2021/07/18 09:49:39;;;;;;;924.75;701.50;;;;;;;;;;4233712;33;20094;-86
2021/07/18 09:52:18;;;;;;;761.08;652.40;;;;;;;;;;4230418;33;20810;-86
2021/07/18 09:54:48;;;;;;;913.67;697.55;;;;;;;;;;4234155;33;20139;-86
2021/07/18 09:57:29;;;;;;;1041.47;741.28;;;;;;;;;;4232393;33;20090;-85
2021/07/18 09:59:58;;;;;;;934.75;684.35;;;;;;;;;;4234356;33;20046;-86
2021/07/18 10:02:27;;;;;;;1013.05;738.40;;;;;;;;;;4231434;33;20412;-86
2021/07/18 10:04:56;;;;;;;1152.18;763.70;;;;;;;;;;4234055;33;20104;-86
2021/07/18 10:07:35;;;;;;;1352.30;814.83;;;;;;;;;;4231820;33;20710;-85
2021/07/18 10:10:06;;;;;;;832.87;682.47;;;;;;;;;;4236440;33;20392;-87
2021/07/18 10:12:35;;;;;;;782.75;681.47;;;;;;;;;;4231258;33;20109;-85
2021/07/18 10:15:03;;;;;;;1000.58;742.37;;;;;;;;;;4232961;33;20089;-86
2021/07/18 10:17:32;;;;;;;1468.00;811.25;;;;;;;;;;4231296;33;20074;-87
2021/07/18 10:20:01;;;;;;;1120.85;764.35;;;;;;;;;;4231560;33;20650;-85
2021/07/18 10:22:29;;;;;;;1314.80;808.62;;;;;;;;;;4230099;33;20505;-86
2021/07/18 10:24:59;;;;;;;1107.90;777.70;;;;;;;;;;4232412;33;20120;-86
2021/07/18 10:27:27;;;;;;;720.75;647.08;;;;;;;;;;4230448;33;20094;-86
2021/07/18 10:29:56;;;;;;;1170.22;776.60;;;;;;;;;;4233085;33;20054;-86
2021/07/18 10:32:25;;;;;;;1360.55;822.42;;;;;;;;;;4231333;33;21008;-86
2021/07/18 10:34:55;;;;;;;1029.80;749.83;;;;;;;;;;4233648;33;20105;-86
2021/07/18 10:37:24;;;;;;;834.88;714.03;;;;;;;;;;4218685;33;20546;-86
2021/07/18 10:39:54;;;;;;;755.50;678.60;;;;;;;;;;4231681;33;20088;-87
2021/07/18 10:42:36;;;;;;;1369.18;835.00;;;;;;;;;;4231699;33;20547;-86
2021/07/18 10:45:20;;;;;;;975.20;758.23;;;;;;;;;;4234099;33;20503;-86
2021/07/18 10:47:55;;;;;;;1127.70;780.05;;;;;;;;;;4230985;33;20097;-86
2021/07/18 10:50:43;;;;;;;901.30;745.42;;;;;;;;;;4230865;33;20054;-87
2021/07/18 10:53:21;;;;;;;783.10;699.85;;;;;;;;;;4218048;33;20090;-86
2021/07/18 10:55:50;;;;;;;1455.30;853.40;;;;;;;;;;4232603;33;20597;-86
2021/07/18 10:58:39;;;;;;;881.20;745.33;;;;;;;;;;4233566;33;20247;-86
2021/07/18 11:01:11;;;;;;;1130.65;807.72;;;;;;;;;;4228831;33;20844;-85
2021/07/18 11:03:41;;;;;;;1246.55;838.95;;;;;;;;;;4232127;33;20050;-85
2021/07/18 11:06:27;;;;;;;1384.45;857.38;;;;;;;;;;4242770;33;20090;-86
2021/07/18 11:09:05;;;;;;;996.85;765.35;;;;;;;;;;4232356;33;20563;-86
2021/07/18 11:11:43;;;;;;;1404.50;862.12;;;;;;;;;;4240380;33;20519;-86
2021/07/18 11:14:23;;;;;;;1670.25;891.17;;;;;;;;;;4233673;33;20043;-86
2021/07/18 11:16:53;;;;;;;1412.38;870.33;;;;;;;;;;4230110;33;20070;-86
2021/07/18 11:19:37;;;;;;;1344.93;859.25;;;;;;;;;;4231806;33;20172;-85
2021/07/18 11:22:11;;;;;;;1736.28;911.10;;;;;;;;;;4235045;33;20046;-86
2021/07/18 11:24:53;;;;;;;857.90;758.53;;;;;;;;;;4232757;33;21383;-86
2021/07/18 11:27:25;;;;;;;794.70;715.80;;;;;;;;;;4230322;33;20505;-86
2021/07/18 11:29:54;;;;;;;980.87;776.30;;;;;;;;;;4232746;33;20064;-86
2021/07/18 11:32:24;;;;;;;1699.53;899.90;;;;;;;;;;4230029;33;20246;-86
2021/07/18 11:34:56;;;;;;;1613.63;891.20;;;;;;;;;;4231460;33;20161;-87
2021/07/18 11:37:25;;;;;;;1794.00;926.97;;;;;;;;;;4230657;33;20162;-86
2021/07/18 11:40:14;;;;;;;1548.35;880.58;;;;;;;;;;4232877;33;20085;-85
2021/07/18 11:42:43;;;;;;;834.95;749.67;;;;;;;;;;4230922;33;20370;-85
2021/07/18 11:45:11;;;;;;;1298.47;859.45;;;;;;;;;;4233400;33;20131;-85
2021/07/18 11:47:40;;;;;;;1380.80;861.55;;;;;;;;;;4230547;33;20100;-86
2021/07/18 11:50:16;;;;;;;1603.25;909.45;;;;;;;;;;4229628;33;20106;-85
2021/07/18 11:52:45;;;;;;;1218.18;829.00;;;;;;;;;;4232441;33;20485;-86
2021/07/18 11:55:13;;;;;;;1166.40;844.83;;;;;;;;;;4230921;33;20137;-86
2021/07/18 11:57:42;;;;;;;863.63;780.05;;;;;;;;;;4229850;33;20094;-86
2021/07/18 12:00:11;;;;;;;1548.57;873.00;;;;;;;;;;4229995;33;20136;-85
2021/07/18 12:02:40;;;;;;;1815.70;931.75;;;;;;;;;;4230764;33;20109;-85
2021/07/18 12:05:09;;;;;;;804.05;723.00;;;;;;;;;;4232653;33;20150;-86
2021/07/18 12:07:38;;;;;;;1334.93;817.75;;;;;;;;;;4232840;33;20042;-86
2021/07/18 12:10:18;;;;;;;1339.22;827.03;;;;;;;;;;4230974;33;20365;-85
2021/07/18 12:12:47;;;;;;;783.47;646.40;;;;;;;;;;4229596;33;20512;-85
2021/07/18 12:15:16;;;;;;;1069.68;734.40;;;;;;;;;;4232938;33;20072;-85
2021/07/18 12:17:44;;;;;;;797.30;716.62;;;;;;;;;;4229279;33;20137;-87
2021/07/18 12:20:21;;;;;;;1434.68;873.87;;;;;;;;;;4234565;33;20043;-86
2021/07/18 12:22:52;;;;;;;759.45;643.83;;;;;;;;;;4229751;33;20165;-85
2021/07/18 12:25:21;;;;;;;1189.68;751.33;;;;;;;;;;4229090;33;20066;-85
2021/07/18 12:27:49;;;;;;;682.85;597.83;;;;;;;;;;4228739;33;20116;-86
2021/07/18 12:30:23;;;;;;;1146.40;761.47;;;;;;;;;;4231903;33;20560;-85
2021/07/18 12:32:53;;;;;;;1356.15;781.78;;;;;;;;;;4228939;33;20144;-85
2021/07/18 12:35:21;;;;;;;763.03;652.58;;;;;;;;;;4231828;33;20054;-86
2021/07/18 12:37:50;;;;;;;805.65;687.05;;;;;;;;;;4228977;33;20634;-86
2021/07/18 12:40:22;;;;;;;1080.05;777.35;;;;;;;;;;4230319;33;20168;-86
2021/07/18 12:42:53;;;;;;;744.10;664.13;;;;;;;;;;4228551;33;20542;-86
2021/07/18 12:45:22;;;;;;;759.72;670.00;;;;;;;;;;4241497;33;20120;-83
2021/07/18 12:48:03;;;;;;;934.88;739.97;;;;;;;;;;4229700;33;20484;-85
2021/07/18 12:50:35;;;;;;;1740.18;853.20;;;;;;;;;;4232463;33;20316;-85
2021/07/18 12:53:04;;;;;;;1190.47;772.15;;;;;;;;;;4229091;33;20050;-85
2021/07/18 12:55:38;;;;;;;517.63;467.60;;;;;;;;;;4228761;33;20054;-85
2021/07/18 12:58:12;;;;;;;1381.88;791.25;;;;;;;;;;4228589;33;20053;-85
2021/07/18 13:00:40;;;;;;;1145.43;792.17;;;;;;;;;;4231618;33;20905;-85
2021/07/18 13:03:11;;;;;;;743.85;624.83;;;;;;;;;;4229466;33;20105;-85
2021/07/18 13:05:41;;;;;;;1122.38;753.65;;;;;;;;;;4228643;33;20704;-86
2021/07/18 13:08:11;;;;;;;1463.85;855.72;;;;;;;;;;4228106;33;20054;-85
2021/07/18 13:10:41;;;;;;;871.90;750.80;;;;;;;;;;4230344;33;20466;-85
2021/07/18 13:13:11;;;;;;;775.60;678.90;;;;;;;;;;4218406;33;21649;-85
2021/07/18 13:15:39;;;;;;;964.87;717.33;;;;;;;;;;4223933;33;20693;-85
2021/07/18 13:18:08;;;;;;;427.75;388.25;;;;;;;;;;4230352;33;20065;-85
2021/07/18 13:20:40;;;;;;;520.38;464.70;;;;;;;;;;4229685;33;20102;-85
2021/07/18 13:23:09;;;;;;;714.03;608.72;;;;;;;;;;4228198;33;20144;-85
2021/07/18 13:25:41;;;;;;;731.22;541.92;;;;;;;;;;4229986;33;20174;-85
2021/07/18 13:28:13;;;;;;;1176.70;772.28;;;;;;;;;;4227818;33;20042;-85
2021/07/18 13:30:43;;;;;;;670.20;550.80;;;;;;;;;;4231034;33;22276;-85
2021/07/18 13:33:13;;;;;;;724.10;650.72;;;;;;;;;;4229415;33;20129;-85
2021/07/18 13:35:41;;;;;;;686.05;616.38;;;;;;;;;;4229361;33;20051;-85
2021/07/18 13:38:20;;;;;;;990.60;734.20;;;;;;;;;;4227257;33;20476;-84
2021/07/18 13:40:48;;;;;;;599.97;547.13;;;;;;;;;;4239952;33;20489;-86
2021/07/18 13:43:20;;;;;;;463.58;425.15;;;;;;;;;;4229334;33;20089;-85
2021/07/18 13:45:53;;;;;;;731.20;656.58;;;;;;;;;;4231952;33;20062;-85
2021/07/18 13:48:23;;;;;;;1107.30;773.33;;;;;;;;;;4231839;33;20055;-85
2021/07/18 13:50:52;;;;;;;762.12;649.83;;;;;;;;;;4231081;33;20219;-85
2021/07/18 13:53:21;;;;;;;1021.53;742.83;;;;;;;;;;4241085;33;20792;-85
2021/07/18 13:55:49;;;;;;;893.08;626.72;;;;;;;;;;4241640;33;20615;-85
2021/07/18 13:58:18;;;;;;;924.53;714.37;;;;;;;;;;4230502;33;20332;-85
2021/07/18 14:00:47;;;;;;;509.30;457.48;;;;;;;;;;4231138;33;20410;-85
2021/07/18 14:03:16;;;;;;;781.97;673.08;;;;;;;;;;4228288;33;20113;-84
2021/07/18 14:05:44;;;;;;;602.55;545.90;;;;;;;;;;4233291;33;20250;-85
2021/07/18 14:08:13;;;;;;;474.88;428.67;;;;;;;;;;4230926;33;20146;-85
2021/07/18 14:10:43;;;;;;;860.20;620.28;;;;;;;;;;4232986;33;20115;-85
2021/07/18 14:13:12;;;;;;;652.50;528.45;;;;;;;;;;4242111;33;20145;-84
2021/07/18 14:15:40;;;;;;;670.47;607.08;;;;;;;;;;4237693;33;20528;-85
2021/07/18 14:18:09;;;;;;;754.22;673.53;;;;;;;;;;4236817;33;20116;-85
2021/07/18 14:20:38;;;;;;;662.00;601.55;;;;;;;;;;4234836;33;20101;-85
2021/07/18 14:23:12;;;;;;;980.97;757.72;;;;;;;;;;4232962;33;20059;-85
2021/07/18 14:25:41;;;;;;;781.63;696.25;;;;;;;;;;4234845;33;20091;-85
2021/07/18 14:28:10;;;;;;;744.70;635.72;;;;;;;;;;4229487;33;20157;-85
2021/07/18 14:30:39;;;;;;;865.55;714.95;;;;;;;;;;4238110;33;20097;-85
2021/07/18 14:33:08;;;;;;;797.80;684.78;;;;;;;;;;4232991;33;20067;-85
2021/07/18 14:35:37;;;;;;;742.90;667.80;;;;;;;;;;4237257;33;20093;-85
2021/07/18 14:38:06;;;;;;;869.90;715.15;;;;;;;;;;4233567;33;20104;-85
2021/07/18 14:40:36;;;;;;;717.05;627.97;;;;;;;;;;4235450;33;20474;-85
2021/07/18 14:43:06;;;;;;;636.00;571.05;;;;;;;;;;4232238;33;20502;-86
2021/07/18 14:45:35;;;;;;;560.60;507.55;;;;;;;;;;4244439;33;20461;-85
2021/07/18 14:48:04;;;;;;;925.45;718.15;;;;;;;;;;4233437;33;20421;-84
2021/07/18 14:50:34;;;;;;;871.28;703.75;;;;;;;;;;4233627;33;20090;-84
2021/07/18 14:53:05;;;;;;;993.30;773.65;;;;;;;;;;4236162;33;20101;-85
2021/07/18 14:55:33;;;;;;;722.15;634.92;;;;;;;;;;4235203;33;20322;-85
2021/07/18 14:58:03;;;;;;;651.95;584.60;;;;;;;;;;4234834;33;20474;-85
2021/07/18 15:00:31;;;;;;;1201.57;814.63;;;;;;;;;;4238546;33;20397;-87
2021/07/18 15:03:01;;;;;;;1310.55;807.65;;;;;;;;;;4233167;33;20150;-85
2021/07/18 15:05:30;;;;;;;897.80;736.12;;;;;;;;;;4235652;33;20396;-85
2021/07/18 15:07:59;;;;;;;648.03;584.22;;;;;;;;;;4233398;33;20079;-85
2021/07/18 15:10:27;;;;;;;1020.33;744.10;;;;;;;;;;4234713;33;20446;-85
2021/07/18 15:12:56;;;;;;;952.70;731.10;;;;;;;;;;4232042;33;20090;-85
2021/07/18 15:15:24;;;;;;;850.20;662.15;;;;;;;;;;4236379;33;20107;-85
2021/07/18 15:17:53;;;;;;;658.40;586.97;;;;;;;;;;4234505;33;20082;-84
2021/07/18 15:20:24;;;;;;;747.90;674.20;;;;;;;;;;4244947;33;20479;-84
2021/07/18 15:22:52;;;;;;;982.15;763.87;;;;;;;;;;4233414;33;20139;-85
2021/07/18 15:25:20;;;;;;;1063.72;764.17;;;;;;;;;;4234476;33;20534;-85
2021/07/18 15:27:49;;;;;;;792.75;708.08;;;;;;;;;;4243290;33;20073;-85
2021/07/18 15:30:18;;;;;;;944.08;754.60;;;;;;;;;;4243790;33;20098;-85
2021/07/18 15:32:46;;;;;;;673.30;604.75;;;;;;;;;;4242931;33;20807;-85
2021/07/18 15:35:15;;;;;;;764.78;683.28;;;;;;;;;;4237263;33;20117;-85
2021/07/18 15:37:44;;;;;;;687.47;606.00;;;;;;;;;;4234304;33;20100;-85
2021/07/18 15:40:13;;;;;;;682.33;613.45;;;;;;;;;;4233877;33;20092;-85
2021/07/18 15:42:42;;;;;;;720.95;627.95;;;;;;;;;;4232485;33;20077;-85
2021/07/18 15:45:11;;;;;;;643.00;577.67;;;;;;;;;;4235122;33;20066;-84
2021/07/18 15:47:40;;;;;;;1259.97;837.65;;;;;;;;;;4233794;33;20065;-85
2021/07/18 15:50:10;;;;;;;943.22;767.92;;;;;;;;;;4245224;33;20410;-85
2021/07/18 15:52:38;;;;;;;789.35;708.62;;;;;;;;;;4232584;33;20110;-85
2021/07/18 15:55:08;;;;;;;1158.25;804.28;;;;;;;;;;4233741;33;20042;-84
2021/07/18 15:57:37;;;;;;;809.92;714.37;;;;;;;;;;4232397;33;20097;-85
2021/07/18 16:00:07;;;;;;;786.17;694.60;;;;;;;;;;4247048;33;20749;-84
2021/07/18 16:02:37;;;;;;;970.53;728.58;;;;;;;;;;4234601;33;20429;-86
2021/07/18 16:05:07;;;;;;;853.12;731.33;;;;;;;;;;4233193;33;20113;-85
2021/07/18 16:07:36;;;;;;;744.45;670.08;;;;;;;;;;4231522;33;20094;-85
2021/07/18 16:10:06;;;;;;;865.33;732.83;;;;;;;;;;4222179;33;20113;-85
2021/07/18 16:12:34;;;;;;;609.53;549.70;;;;;;;;;;4233005;33;20430;-85
2021/07/18 16:15:07;;;;;;;1074.53;775.47;;;;;;;;;;4222001;33;20128;-85
2021/07/18 16:17:36;;;;;;;1169.10;774.58;;;;;;;;;;4231495;33;21501;-86
2021/07/18 16:20:05;;;;;;;1290.03;817.33;;;;;;;;;;4217793;33;23202;-84
2021/07/18 16:22:34;;;;;;;1293.47;806.97;;;;;;;;;;4233412;33;20587;-85
2021/07/18 16:25:07;;;;;;;1093.75;749.12;;;;;;;;;;4252028;33;20042;-85
2021/07/18 16:27:36;;;;;;;971.25;745.33;;;;;;;;;;4241825;33;20208;-84
2021/07/18 16:30:08;;;;;;;906.58;719.33;;;;;;;;;;4244737;33;20527;-85
2021/07/18 16:32:38;;;;;;;772.50;689.00;;;;;;;;;;4241535;33;20051;-85
2021/07/18 16:35:07;;;;;;;998.00;732.85;;;;;;;;;;4241254;33;20413;-84
2021/07/18 16:37:36;;;;;;;714.85;643.10;;;;;;;;;;4240170;33;20449;-84
2021/07/18 16:40:05;;;;;;;645.70;579.15;;;;;;;;;;4236776;33;20116;-84
2021/07/18 16:42:34;;;;;;;725.45;655.50;;;;;;;;;;4239571;33;20104;-85
2021/07/18 16:45:03;;;;;;;783.80;671.83;;;;;;;;;;4238741;33;20389;-85
2021/07/18 16:47:32;;;;;;;981.67;731.60;;;;;;;;;;4237034;33;20098;-85
2021/07/18 16:50:01;;;;;;;865.20;698.25;;;;;;;;;;4246424;33;20046;-85
2021/07/18 16:52:31;;;;;;;689.60;617.17;;;;;;;;;;4241602;33;20148;-85
2021/07/18 16:54:59;;;;;;;762.83;653.35;;;;;;;;;;4237299;33;20085;-84
2021/07/18 16:57:28;;;;;;;840.47;728.20;;;;;;;;;;4239798;33;20054;-85
2021/07/18 16:59:59;;;;;;;640.88;575.35;;;;;;;;;;4242495;33;20375;-85
2021/07/18 17:02:28;;;;;;;618.20;552.50;;;;;;;;;;4240998;33;20484;-84
2021/07/18 17:04:57;;;;;;;866.50;749.45;;;;;;;;;;4247685;33;20150;-85
2021/07/18 17:07:25;;;;;;;609.75;551.87;;;;;;;;;;4240385;33;20132;-84
2021/07/18 17:09:58;;;;;;;1009.33;794.37;;;;;;;;;;4245267;33;20102;-84
2021/07/18 17:12:27;;;;;;;863.80;700.22;;;;;;;;;;4244382;33;20058;-84
2021/07/18 17:14:55;;;;;;;705.87;577.03;;;;;;;;;;4245974;33;20382;-85
2021/07/18 17:17:24;;;;;;;931.53;706.08;;;;;;;;;;4238422;33;20120;-84
2021/07/18 17:19:52;;;;;;;712.83;637.83;;;;;;;;;;4240087;33;20418;-84
2021/07/18 17:22:21;;;;;;;673.62;597.67;;;;;;;;;;4237745;33;20322;-85
2021/07/18 17:24:49;;;;;;;813.45;655.95;;;;;;;;;;4241952;33;20050;-86
2021/07/18 17:27:18;;;;;;;646.60;581.85;;;;;;;;;;4244033;33;20050;-85
2021/07/18 17:29:47;;;;;;;708.85;596.47;;;;;;;;;;4255800;33;20081;-84
2021/07/18 17:32:15;;;;;;;750.17;643.92;;;;;;;;;;4255186;33;20509;-84
2021/07/18 17:34:44;;;;;;;903.20;712.92;;;;;;;;;;4237200;33;20070;-84
2021/07/18 17:37:13;;;;;;;573.47;511.83;;;;;;;;;;4247071;33;20121;-85
2021/07/18 17:39:41;;;;;;;776.67;673.25;;;;;;;;;;4239405;33;20110;-85
2021/07/18 17:42:10;;;;;;;627.50;565.15;;;;;;;;;;4228946;33;20046;-85
2021/07/18 17:44:39;;;;;;;629.00;562.75;;;;;;;;;;4236149;33;20419;-84
2021/07/18 17:47:07;;;;;;;541.75;481.48;;;;;;;;;;4231250;33;20042;-84
2021/07/18 17:49:36;;;;;;;646.42;572.17;;;;;;;;;;4232697;33;20579;-85
2021/07/18 17:52:05;;;;;;;764.40;616.90;;;;;;;;;;4234241;33;20377;-85
2021/07/18 17:54:34;;;;;;;501.08;447.27;;;;;;;;;;4236324;33;20542;-84
2021/07/18 17:57:05;;;;;;;503.25;453.50;;;;;;;;;;4236630;33;20142;-84
2021/07/18 17:59:33;;;;;;;700.90;625.65;;;;;;;;;;4242936;33;20077;-84
2021/07/18 18:02:02;;;;;;;822.87;648.28;;;;;;;;;;4236287;33;20106;-85
2021/07/18 18:04:32;;;;;;;819.85;668.37;;;;;;;;;;4246214;33;20145;-84
2021/07/18 18:07:01;;;;;;;709.40;610.72;;;;;;;;;;4241515;33;20466;-85
2021/07/18 18:09:30;;;;;;;860.90;736.85;;;;;;;;;;4237869;33;20042;-84
2021/07/18 18:12:00;;;;;;;767.10;682.50;;;;;;;;;;4238476;33;20080;-84
2021/07/18 18:14:30;;;;;;;1087.18;793.83;;;;;;;;;;4234485;33;20105;-85
2021/07/18 18:16:58;;;;;;;811.03;719.70;;;;;;;;;;4243469;33;20469;-84
2021/07/18 18:19:28;;;;;;;1098.18;697.03;;;;;;;;;;4240022;33;20150;-84
2021/07/18 18:21:59;;;;;;;753.42;602.30;;;;;;;;;;4239362;33;20093;-84
2021/07/18 18:24:28;;;;;;;1317.47;747.42;;;;;;;;;;4237453;33;20498;-84
2021/07/18 18:26:56;;;;;;;706.95;595.20;;;;;;;;;;4241454;33;20074;-84
2021/07/18 18:29:26;;;;;;;426.73;382.15;;;;;;;;;;4235581;33;20082;-85
2021/07/18 18:31:55;;;;;;;718.42;557.12;;;;;;;;;;4238043;33;20444;-84
2021/07/18 18:34:25;;;;;;;585.90;523.47;;;;;;;;;;4237567;33;20097;-84
2021/07/18 18:36:54;;;;;;;516.45;459.58;;;;;;;;;;4236647;33;20068;-84
2021/07/18 18:39:22;;;;;;;702.47;551.35;;;;;;;;;;4242051;33;20409;-85
2021/07/18 18:41:51;;;;;;;592.30;529.90;;;;;;;;;;4234097;33;20068;-84
2021/07/18 18:44:21;;;;;;;708.67;625.08;;;;;;;;;;4236911;33;20070;-85
2021/07/18 18:46:49;;;;;;;700.90;622.40;;;;;;;;;;4234543;33;20426;-84
2021/07/18 18:49:17;;;;;;;712.62;619.45;;;;;;;;;;4239714;33;20213;-84
2021/07/18 18:51:46;;;;;;;464.58;418.80;;;;;;;;;;4235123;33;20082;-85
2021/07/18 18:54:15;;;;;;;572.03;509.25;;;;;;;;;;4243775;33;20453;-85
2021/07/18 18:56:44;;;;;;;846.12;702.58;;;;;;;;;;4236567;33;20092;-84
2021/07/18 18:59:13;;;;;;;865.03;699.22;;;;;;;;;;4239677;33;20535;-85
2021/07/18 19:01:42;;;;;;;828.88;742.55;;;;;;;;;;4234747;33;20232;-85
2021/07/18 19:04:11;;;;;;;814.83;711.75;;;;;;;;;;4245185;33;20058;-84
2021/07/18 19:06:41;;;;;;;713.63;637.22;;;;;;;;;;4232738;33;21651;-85
2021/07/18 19:09:10;;;;;;;831.12;735.42;;;;;;;;;;4239189;33;20452;-85
2021/07/18 19:11:39;;;;;;;995.58;805.97;;;;;;;;;;4224322;33;20101;-85
2021/07/18 19:14:09;;;;;;;1030.20;851.30;;;;;;;;;;4225683;33;20182;-85
2021/07/18 19:16:38;;;;;;;1352.07;931.90;;;;;;;;;;4232692;33;20066;-84
2021/07/18 19:19:07;;;;;;;1277.10;941.70;;;;;;;;;;4226763;33;20089;-86
2021/07/18 19:21:36;;;;;;;1205.80;900.75;;;;;;;;;;4241430;33;20170;-84
2021/07/18 19:24:05;;;;;;;1448.63;982.17;;;;;;;;;;4237807;33;20108;-84